Terminal Aerodrome Forecast
Issued by NWS

Home | Current Version | Previous Version | Graphics & Text | Print | Product List | Glossary On
Versions: 1 2 3 4 5 6 7 8 9 10 11 12 13 14 15 16 17 18 19 20 21 22 23 24 25 26 27 28 29 30 31 32 33 34 35 36 37 38 39 40 41 42 43 44 45 46
469
FTUS43 KGRB 240926 AAB
TAFRHI
TAF AMD
KRHI 240926Z 2409/2506 VRB03KT 1/2SM FG OVC003
      TEMPO 2409/2413 1/4SM FG BKN002
     FM241400 08004KT 2SM BR BKN006
     FM241600 10006KT P6SM SCT050 SCT150
     FM241900 10010KT P6SM SCT030 BKN070
     FM242100 10010G19KT P6SM OVC030
     FM250000 10013G25KT P6SM -RASN OVC015
     FM250300 10015G30KT 1SM -SN OVC008 WS020/12045KT=

USA.gov is the U.S. government's official web portal to all federal, state and local government web resources and services.